sensor_id;sensor_type;location;lat;lon;timestamp;pressure;altitude;pressure_sealevel;temperature;humidity
3668;BME280;24099;47.102;15.440;2023-04-24T00:00:09;96240.81;;;8.37;100.00
3668;BME280;24099;47.102;15.440;2023-04-24T00:02:38;96239.00;;;8.44;100.00
3668;BME280;24099;47.102;15.440;2023-04-24T00:05:07;96241.94;;;8.56;100.00
3668;BME280;24099;47.102;15.440;2023-04-24T00:07:35;96239.44;;;8.48;100.00
3668;BME280;24099;47.102;15.440;2023-04-24T00:10:03;96229.31;;;8.38;100.00
3668;BME280;24099;47.102;15.440;2023-04-24T00:12:33;96225.31;;;8.21;100.00
3668;BME280;24099;47.102;15.440;2023-04-24T00:15:03;96222.13;;;8.25;100.00
3668;BME280;24099;47.102;15.440;2023-04-24T00:17:31;96217.91;;;8.03;100.00
3668;BME280;24099;47.102;15.440;2023-04-24T00:20:02;96215.16;;;8.33;100.00
3668;BME280;24099;47.102;15.440;2023-04-24T00:22:31;96218.25;;;8.21;100.00
3668;BME280;24099;47.102;15.440;2023-04-24T00:24:59;96218.31;;;8.28;100.00
3668;BME280;24099;47.102;15.440;2023-04-24T00:27:27;96216.69;;;7.99;100.00
3668;BME280;24099;47.102;15.440;2023-04-24T00:29:57;96212.91;;;8.08;100.00
3668;BME280;24099;47.102;15.440;2023-04-24T00:32:24;96218.03;;;8.16;100.00
3668;BME280;24099;47.102;15.440;2023-04-24T00:34:58;96211.81;;;7.96;100.00
3668;BME280;24099;47.102;15.440;2023-04-24T00:37:26;96211.09;;;8.09;100.00
3668;BME280;24099;47.102;15.440;2023-04-24T00:39:53;96213.44;;;7.97;100.00
3668;BME280;24099;47.102;15.440;2023-04-24T00:42:27;96206.50;;;7.89;100.00
3668;BME280;24099;47.102;15.440;2023-04-24T00:45:07;96210.31;;;7.87;100.00
3668;BME280;24099;47.102;15.440;2023-04-24T00:47:35;96208.56;;;7.94;100.00
3668;BME280;24099;47.102;15.440;2023-04-24T00:50:04;96209.19;;;7.96;100.00
3668;BME280;24099;47.102;15.440;2023-04-24T00:52:33;96206.75;;;7.94;100.00
3668;BME280;24099;47.102;15.440;2023-04-24T00:55:00;96204.88;;;8.10;100.00
3668;BME280;24099;47.102;15.440;2023-04-24T00:57:29;96199.75;;;8.02;100.00
3668;BME280;24099;47.102;15.440;2023-04-24T00:59:58;96206.13;;;7.92;100.00
3668;BME280;24099;47.102;15.440;2023-04-24T01:02:30;96205.19;;;8.00;100.00
3668;BME280;24099;47.102;15.440;2023-04-24T01:05:01;96203.69;;;8.12;100.00
3668;BME280;24099;47.102;15.440;2023-04-24T01:07:32;96200.47;;;7.89;100.00
3668;BME280;24099;47.102;15.440;2023-04-24T01:10:08;96200.47;;;7.89;100.00
3668;BME280;24099;47.102;15.440;2023-04-24T01:12:37;96204.19;;;8.01;100.00
3668;BME280;24099;47.102;15.440;2023-04-24T01:15:09;96206.59;;;7.96;100.00
3668;BME280;24099;47.102;15.440;2023-04-24T01:17:45;96208.22;;;8.04;100.00
3668;BME280;24099;47.102;15.440;2023-04-24T01:20:14;96205.97;;;7.73;100.00
3668;BME280;24099;47.102;15.440;2023-04-24T01:22:47;96210.47;;;7.79;100.00
3668;BME280;24099;47.102;15.440;2023-04-24T01:25:15;96202.47;;;7.87;100.00
3668;BME280;24099;47.102;15.440;2023-04-24T01:27:47;96207.69;;;7.87;100.00
3668;BME280;24099;47.102;15.440;2023-04-24T01:30:19;96205.63;;;7.82;100.00
3668;BME280;24099;47.102;15.440;2023-04-24T01:32:47;96195.75;;;7.78;100.00
3668;BME280;24099;47.102;15.440;2023-04-24T01:35:15;96197.09;;;7.95;100.00
3668;BME280;24099;47.102;15.440;2023-04-24T01:37:44;96196.91;;;7.97;100.00
3668;BME280;24099;47.102;15.440;2023-04-24T01:40:16;96199.72;;;7.74;100.00
3668;BME280;24099;47.102;15.440;2023-04-24T01:42:48;96193.53;;;7.81;100.00
3668;BME280;24099;47.102;15.440;2023-04-24T01:45:16;96195.78;;;7.84;100.00
3668;BME280;24099;47.102;15.440;2023-04-24T01:47:44;96195.84;;;7.91;100.00
3668;BME280;24099;47.102;15.440;2023-04-24T01:50:12;96191.53;;;7.83;100.00
3668;BME280;24099;47.102;15.440;2023-04-24T01:52:41;96187.94;;;7.84;100.00
3668;BME280;24099;47.102;15.440;2023-04-24T01:55:10;96185.50;;;7.83;100.00
3668;BME280;24099;47.102;15.440;2023-04-24T01:57:40;96174.78;;;7.78;100.00
3668;BME280;24099;47.102;15.440;2023-04-24T02:00:11;96184.88;;;7.81;100.00
3668;BME280;24099;47.102;15.440;2023-04-24T02:02:40;96175.00;;;7.83;100.00
3668;BME280;24099;47.102;15.440;2023-04-24T02:05:09;96178.75;;;7.95;100.00
3668;BME280;24099;47.102;15.440;2023-04-24T02:07:37;96178.47;;;8.11;100.00
3668;BME280;24099;47.102;15.440;2023-04-24T02:10:13;96171.13;;;8.00;100.00
3668;BME280;24099;47.102;15.440;2023-04-24T02:12:51;96161.78;;;7.91;100.00
3668;BME280;24099;47.102;15.440;2023-04-24T02:15:19;96159.41;;;7.96;100.00
3668;BME280;24099;47.102;15.440;2023-04-24T02:17:47;96158.13;;;8.13;100.00
3668;BME280;24099;47.102;15.440;2023-04-24T02:20:14;96151.03;;;8.07;100.00
3668;BME280;24099;47.102;15.440;2023-04-24T02:22:43;96156.25;;;8.07;100.00
3668;BME280;24099;47.102;15.440;2023-04-24T02:25:13;96147.16;;;8.03;100.00
3668;BME280;24099;47.102;15.440;2023-04-24T02:27:44;96155.34;;;8.21;100.00
3668;BME280;24099;47.102;15.440;2023-04-24T02:30:14;96163.19;;;8.21;100.00
3668;BME280;24099;47.102;15.440;2023-04-24T02:32:41;96159.94;;;8.13;100.00
3668;BME280;24099;47.102;15.440;2023-04-24T02:35:11;96151.50;;;8.17;100.00
3668;BME280;24099;47.102;15.440;2023-04-24T02:37:38;96152.63;;;8.08;100.00
3668;BME280;24099;47.102;15.440;2023-04-24T02:40:09;96147.94;;;7.97;100.00
3668;BME280;24099;47.102;15.440;2023-04-24T02:42:37;96146.13;;;7.98;100.00
3668;BME280;24099;47.102;15.440;2023-04-24T02:45:06;96125.69;;;7.86;100.00
3668;BME280;24099;47.102;15.440;2023-04-24T02:47:35;96139.91;;;7.99;100.00
3668;BME280;24099;47.102;15.440;2023-04-24T02:50:05;96135.66;;;7.98;100.00
3668;BME280;24099;47.102;15.440;2023-04-24T02:52:34;96140.78;;;7.84;100.00
3668;BME280;24099;47.102;15.440;2023-04-24T02:55:01;96132.75;;;7.65;100.00
3668;BME280;24099;47.102;15.440;2023-04-24T02:57:29;96131.00;;;7.72;100.00
3668;BME280;24099;47.102;15.440;2023-04-24T02:59:57;96129.28;;;7.79;100.00
3668;BME280;24099;47.102;15.440;2023-04-24T03:02:25;96133.63;;;7.72;100.00
3668;BME280;24099;47.102;15.440;2023-04-24T03:04:54;96132.44;;;7.74;100.00
3668;BME280;24099;47.102;15.440;2023-04-24T03:07:23;96133.75;;;7.64;100.00
3668;BME280;24099;47.102;15.440;2023-04-24T03:09:50;96127.59;;;7.71;100.00
3668;BME280;24099;47.102;15.440;2023-04-24T03:12:19;96126.97;;;7.69;100.00
3668;BME280;24099;47.102;15.440;2023-04-24T03:14:50;96131.66;;;7.80;100.00
3668;BME280;24099;47.102;15.440;2023-04-24T03:17:19;96128.41;;;7.72;100.00
3668;BME280;24099;47.102;15.440;2023-04-24T03:19:47;96127.34;;;7.66;100.00
3668;BME280;24099;47.102;15.440;2023-04-24T03:22:15;96121.25;;;7.59;100.00
3668;BME280;24099;47.102;15.440;2023-04-24T03:24:43;96121.38;;;7.51;100.00
3668;BME280;24099;47.102;15.440;2023-04-24T03:27:13;96134.59;;;7.43;100.00
3668;BME280;24099;47.102;15.440;2023-04-24T03:30:14;96130.16;;;7.43;100.00
3668;BME280;24099;47.102;15.440;2023-04-24T03:32:54;96132.59;;;7.45;100.00
3668;BME280;24099;47.102;15.440;2023-04-24T03:35:27;96137.16;;;7.36;100.00
3668;BME280;24099;47.102;15.440;2023-04-24T03:38:00;96136.34;;;7.36;100.00
3668;BME280;24099;47.102;15.440;2023-04-24T03:40:46;96147.00;;;7.55;100.00
3668;BME280;24099;47.102;15.440;2023-04-24T03:43:30;96142.97;;;7.59;100.00
3668;BME280;24099;47.102;15.440;2023-04-24T03:46:01;96146.81;;;7.57;100.00
3668;BME280;24099;47.102;15.440;2023-04-24T03:48:31;96151.59;;;7.53;100.00
3668;BME280;24099;47.102;15.440;2023-04-24T03:50:59;96152.16;;;7.49;100.00
3668;BME280;24099;47.102;15.440;2023-04-24T03:53:30;96155.47;;;7.57;100.00
3668;BME280;24099;47.102;15.440;2023-04-24T03:55:59;96152.53;;;7.46;100.00
3668;BME280;24099;47.102;15.440;2023-04-24T03:58:31;96158.84;;;7.51;100.00
3668;BME280;24099;47.102;15.440;2023-04-24T04:01:00;96156.34;;;7.43;100.00
3668;BME280;24099;47.102;15.440;2023-04-24T04:03:44;96152.09;;;7.42;100.00
3668;BME280;24099;47.102;15.440;2023-04-24T04:06:15;96151.69;;;7.39;100.00
3668;BME280;24099;47.102;15.440;2023-04-24T04:08:46;96154.66;;;7.36;100.00
3668;BME280;24099;47.102;15.440;2023-04-24T04:11:13;96158.66;;;7.53;100.00
3668;BME280;24099;47.102;15.440;2023-04-24T04:13:41;96156.03;;;7.53;100.00
3668;BME280;24099;47.102;15.440;2023-04-24T04:16:15;96155.34;;;7.66;100.00
3668;BME280;24099;47.102;15.440;2023-04-24T04:18:45;96162.44;;;7.72;100.00
3668;BME280;24099;47.102;15.440;2023-04-24T04:21:13;96162.50;;;7.78;100.00
3668;BME280;24099;47.102;15.440;2023-04-24T04:23:41;96160.72;;;7.85;100.00
3668;BME280;24099;47.102;15.440;2023-04-24T04:26:29;96161.19;;;7.68;100.00
3668;BME280;24099;47.102;15.440;2023-04-24T04:29:07;96163.69;;;7.76;100.00
3668;BME280;24099;47.102;15.440;2023-04-24T04:31:40;96160.69;;;7.79;100.00
3668;BME280;24099;47.102;15.440;2023-04-24T04:34:12;96172.41;;;7.83;100.00
3668;BME280;24099;47.102;15.440;2023-04-24T04:36:42;96168.66;;;7.92;100.00
3668;BME280;24099;47.102;15.440;2023-04-24T04:39:36;96168.47;;;7.93;100.00
3668;BME280;24099;47.102;15.440;2023-04-24T04:42:13;96168.31;;;8.02;100.00
3668;BME280;24099;47.102;15.440;2023-04-24T04:44:46;96171.59;;;8.10;100.00
3668;BME280;24099;47.102;15.440;2023-04-24T04:47:21;96173.47;;;8.16;100.00
3668;BME280;24099;47.102;15.440;2023-04-24T04:49:51;96174.91;;;8.19;100.00
3668;BME280;24099;47.102;15.440;2023-04-24T04:52:23;96175.75;;;8.26;100.00
3668;BME280;24099;47.102;15.440;2023-04-24T04:55:10;96185.13;;;8.35;100.00
3668;BME280;24099;47.102;15.440;2023-04-24T04:57:59;96181.13;;;8.39;100.00
3668;BME280;24099;47.102;15.440;2023-04-24T05:00:28;96175.88;;;8.39;100.00
3668;BME280;24099;47.102;15.440;2023-04-24T05:03:01;96175.25;;;8.37;100.00
3668;BME280;24099;47.102;15.440;2023-04-24T05:05:29;96181.53;;;8.43;100.00
3668;BME280;24099;47.102;15.440;2023-04-24T05:07:57;96175.31;;;8.50;100.00
3668;BME280;24099;47.102;15.440;2023-04-24T05:10:25;96177.19;;;8.56;100.00
3668;BME280;24099;47.102;15.440;2023-04-24T05:12:55;96182.63;;;8.61;100.00
3668;BME280;24099;47.102;15.440;2023-04-24T05:15:24;96188.13;;;8.67;100.00
3668;BME280;24099;47.102;15.440;2023-04-24T05:17:52;96181.28;;;8.72;100.00
3668;BME280;24099;47.102;15.440;2023-04-24T05:20:23;96188.16;;;8.80;100.00
3668;BME280;24099;47.102;15.440;2023-04-24T05:22:51;96187.22;;;8.87;100.00
3668;BME280;24099;47.102;15.440;2023-04-24T05:25:22;96178.56;;;8.93;100.00
3668;BME280;24099;47.102;15.440;2023-04-24T05:28:01;96179.38;;;9.01;100.00
3668;BME280;24099;47.102;15.440;2023-04-24T05:30:30;96186.91;;;9.10;100.00
3668;BME280;24099;47.102;15.440;2023-04-24T05:32:58;96186.91;;;9.10;100.00
3668;BME280;24099;47.102;15.440;2023-04-24T05:35:26;96186.72;;;9.12;100.00
3668;BME280;24099;47.102;15.440;2023-04-24T05:37:56;96180.44;;;9.19;100.00
3668;BME280;24099;47.102;15.440;2023-04-24T05:40:24;96190.97;;;9.26;100.00
3668;BME280;24099;47.102;15.440;2023-04-24T05:42:52;96191.00;;;9.32;100.00
3668;BME280;24099;47.102;15.440;2023-04-24T05:45:20;96183.94;;;9.40;100.00
3668;BME280;24099;47.102;15.440;2023-04-24T05:47:51;96188.78;;;9.43;100.00
3668;BME280;24099;47.102;15.440;2023-04-24T05:50:20;96181.56;;;9.51;100.00
3668;BME280;24099;47.102;15.440;2023-04-24T05:52:51;96179.53;;;9.53;100.00
3668;BME280;24099;47.102;15.440;2023-04-24T05:55:26;96178.13;;;9.57;100.00
3668;BME280;24099;47.102;15.440;2023-04-24T05:57:54;96186.81;;;9.64;100.00
3668;BME280;24099;47.102;15.440;2023-04-24T06:00:25;96182.41;;;9.78;100.00
3668;BME280;24099;47.102;15.440;2023-04-24T06:03:02;96181.19;;;9.87;100.00
3668;BME280;24099;47.102;15.440;2023-04-24T06:05:30;96183.44;;;9.97;100.00
3668;BME280;24099;47.102;15.440;2023-04-24T06:07:59;96185.84;;;10.12;100.00
3668;BME280;24099;47.102;15.440;2023-04-24T06:10:32;96186.88;;;10.30;100.00
3668;BME280;24099;47.102;15.440;2023-04-24T06:13:00;96196.38;;;10.31;100.00
3668;BME280;24099;47.102;15.440;2023-04-24T06:15:30;96189.31;;;10.39;100.00
3668;BME280;24099;47.102;15.440;2023-04-24T06:18:09;96188.47;;;10.45;100.00
3668;BME280;24099;47.102;15.440;2023-04-24T06:20:38;96196.56;;;10.43;100.00
3668;BME280;24099;47.102;15.440;2023-04-24T06:23:08;96198.16;;;10.51;100.00
3668;BME280;24099;47.102;15.440;2023-04-24T06:25:37;96201.78;;;10.63;100.00
3668;BME280;24099;47.102;15.440;2023-04-24T06:28:05;96204.41;;;10.69;100.00
3668;BME280;24099;47.102;15.440;2023-04-24T06:30:33;96207.19;;;10.81;100.00
3668;BME280;24099;47.102;15.440;2023-04-24T06:33:01;96200.91;;;10.89;100.00
3668;BME280;24099;47.102;15.440;2023-04-24T06:35:31;96205.56;;;10.93;100.00
3668;BME280;24099;47.102;15.440;2023-04-24T06:37:59;96201.25;;;11.05;100.00
3668;BME280;24099;47.102;15.440;2023-04-24T06:40:26;96201.44;;;11.17;100.00
3668;BME280;24099;47.102;15.440;2023-04-24T06:42:54;96200.78;;;11.22;100.00
3668;BME280;24099;47.102;15.440;2023-04-24T06:45:23;96202.78;;;11.26;100.00
3668;BME280;24099;47.102;15.440;2023-04-24T06:47:50;96204.19;;;11.35;100.00
3668;BME280;24099;47.102;15.440;2023-04-24T06:50:18;96202.72;;;11.39;100.00
3668;BME280;24099;47.102;15.440;2023-04-24T06:52:51;96207.53;;;11.49;100.00
3668;BME280;24099;47.102;15.440;2023-04-24T06:55:20;96207.94;;;11.53;100.00
3668;BME280;24099;47.102;15.440;2023-04-24T06:57:48;96210.09;;;11.62;100.00
3668;BME280;24099;47.102;15.440;2023-04-24T07:00:16;96209.66;;;11.65;100.00
3668;BME280;24099;47.102;15.440;2023-04-24T07:02:44;96215.75;;;11.66;100.00
3668;BME280;24099;47.102;15.440;2023-04-24T07:05:12;96211.28;;;11.66;100.00
3668;BME280;24099;47.102;15.440;2023-04-24T07:07:42;96215.13;;;11.70;100.00
3668;BME280;24099;47.102;15.440;2023-04-24T07:10:12;96215.28;;;11.76;100.00
3668;BME280;24099;47.102;15.440;2023-04-24T07:12:41;96208.81;;;11.78;100.00
3668;BME280;24099;47.102;15.440;2023-04-24T07:15:10;96210.88;;;11.69;100.00
3668;BME280;24099;47.102;15.440;2023-04-24T07:17:41;96215.13;;;11.70;100.00
3668;BME280;24099;47.102;15.440;2023-04-24T07:20:12;96217.19;;;11.62;100.00
3668;BME280;24099;47.102;15.440;2023-04-24T07:22:43;96223.13;;;11.57;100.00
3668;BME280;24099;47.102;15.440;2023-04-24T07:25:29;96229.00;;;11.53;100.00
3668;BME280;24099;47.102;15.440;2023-04-24T07:27:57;96227.00;;;11.48;100.00
3668;BME280;24099;47.102;15.440;2023-04-24T07:30:31;96237.41;;;11.36;100.00
3668;BME280;24099;47.102;15.440;2023-04-24T07:32:59;96224.75;;;11.52;100.00
3668;BME280;24099;47.102;15.440;2023-04-24T07:35:27;96222.03;;;11.65;100.00
3668;BME280;24099;47.102;15.440;2023-04-24T07:37:55;96230.00;;;11.58;100.00
3668;BME280;24099;47.102;15.440;2023-04-24T07:40:23;96239.16;;;11.49;100.00
3668;BME280;24099;47.102;15.440;2023-04-24T07:42:53;96234.31;;;11.46;100.00
3668;BME280;24099;47.102;15.440;2023-04-24T07:45:20;96235.19;;;11.33;100.00
3668;BME280;24099;47.102;15.440;2023-04-24T07:47:49;96231.66;;;11.46;100.00
3668;BME280;24099;47.102;15.440;2023-04-24T07:50:17;96237.75;;;11.47;100.00
3668;BME280;24099;47.102;15.440;2023-04-24T07:52:45;96240.84;;;11.37;100.00
3668;BME280;24099;47.102;15.440;2023-04-24T07:55:13;96242.47;;;11.38;100.00
3668;BME280;24099;47.102;15.440;2023-04-24T07:57:42;96242.41;;;11.45;100.00
3668;BME280;24099;47.102;15.440;2023-04-24T08:00:12;96238.03;;;11.32;100.00
3668;BME280;24099;47.102;15.440;2023-04-24T08:02:40;96241.41;;;11.39;100.00
3668;BME280;24099;47.102;15.440;2023-04-24T08:05:08;96253.56;;;11.40;100.00
3668;BME280;24099;47.102;15.440;2023-04-24T08:07:37;96248.69;;;11.50;100.00
3668;BME280;24099;47.102;15.440;2023-04-24T08:10:06;96255.03;;;11.36;100.00
3668;BME280;24099;47.102;15.440;2023-04-24T08:12:34;96259.44;;;11.42;100.00
3668;BME280;24099;47.102;15.440;2023-04-24T08:15:02;96258.44;;;11.43;100.00
3668;BME280;24099;47.102;15.440;2023-04-24T08:17:31;96260.06;;;11.44;100.00
3668;BME280;24099;47.102;15.440;2023-04-24T08:19:58;96259.81;;;11.52;100.00
3668;BME280;24099;47.102;15.440;2023-04-24T08:22:27;96264.28;;;11.52;100.00
3668;BME280;24099;47.102;15.440;2023-04-24T08:24:55;96270.38;;;11.52;100.00
3668;BME280;24099;47.102;15.440;2023-04-24T08:27:24;96275.03;;;11.50;100.00
3668;BME280;24099;47.102;15.440;2023-04-24T08:29:53;96275.44;;;11.54;100.00
3668;BME280;24099;47.102;15.440;2023-04-24T08:32:21;96277.97;;;11.73;100.00
3668;BME280;24099;47.102;15.440;2023-04-24T08:34:51;96288.81;;;11.52;100.00
3668;BME280;24099;47.102;15.440;2023-04-24T08:37:22;96286.38;;;11.57;100.00
3668;BME280;24099;47.102;15.440;2023-04-24T08:39:50;96289.56;;;11.59;100.00
3668;BME280;24099;47.102;15.440;2023-04-24T08:42:19;96286.97;;;11.53;100.00
3668;BME280;24099;47.102;15.440;2023-04-24T08:44:49;96300.56;;;11.56;100.00
3668;BME280;24099;47.102;15.440;2023-04-24T08:47:18;96294.69;;;11.48;100.00
3668;BME280;24099;47.102;15.440;2023-04-24T08:49:50;96297.53;;;11.53;100.00
3668;BME280;24099;47.102;15.440;2023-04-24T08:52:19;96308.88;;;11.53;100.00
3668;BME280;24099;47.102;15.440;2023-04-24T08:54:48;96310.28;;;11.56;100.00
3668;BME280;24099;47.102;15.440;2023-04-24T08:57:16;96304.75;;;11.70;100.00
3668;BME280;24099;47.102;15.440;2023-04-24T08:59:43;96312.88;;;11.62;100.00
3668;BME280;24099;47.102;15.440;2023-04-24T09:02:12;96308.81;;;11.60;100.00
3668;BME280;24099;47.102;15.440;2023-04-24T09:04:41;96306.38;;;11.71;100.00
3668;BME280;24099;47.102;15.440;2023-04-24T09:07:13;96310.84;;;11.78;100.00
3668;BME280;24099;47.102;15.440;2023-04-24T09:09:42;96307.16;;;11.72;100.00
3668;BME280;24099;47.102;15.440;2023-04-24T09:12:10;96315.69;;;11.74;100.00
3668;BME280;24099;47.102;15.440;2023-04-24T09:14:39;96312.22;;;11.73;100.00
3668;BME280;24099;47.102;15.440;2023-04-24T09:17:11;96317.72;;;11.79;100.00
3668;BME280;24099;47.102;15.440;2023-04-24T09:19:39;96320.75;;;11.76;100.00
3668;BME280;24099;47.102;15.440;2023-04-24T09:22:09;96318.53;;;11.72;100.00
3668;BME280;24099;47.102;15.440;2023-04-24T09:24:39;96322.78;;;11.73;100.00
3668;BME280;24099;47.102;15.440;2023-04-24T09:27:07;96325.44;;;11.67;100.00
3668;BME280;24099;47.102;15.440;2023-04-24T09:29:38;96321.97;;;11.73;100.00
3668;BME280;24099;47.102;15.440;2023-04-24T09:32:19;96314.88;;;11.73;100.00
3668;BME280;24099;47.102;15.440;2023-04-24T09:34:48;96314.47;;;11.70;100.00
3668;BME280;24099;47.102;15.440;2023-04-24T09:37:28;96305.78;;;11.63;100.00
3668;BME280;24099;47.102;15.440;2023-04-24T09:40:13;96308.22;;;11.64;100.00
3668;BME280;24099;47.102;15.440;2023-04-24T09:42:44;96301.47;;;11.75;100.00
3668;BME280;24099;47.102;15.440;2023-04-24T09:45:13;96299.47;;;11.70;100.00
3668;BME280;24099;47.102;15.440;2023-04-24T09:47:41;96304.75;;;11.77;100.00
3668;BME280;24099;47.102;15.440;2023-04-24T09:50:11;96302.28;;;11.82;100.00
3668;BME280;24099;47.102;15.440;2023-04-24T09:52:43;96295.16;;;11.89;100.00
3668;BME280;24099;47.102;15.440;2023-04-24T09:55:18;96302.09;;;11.70;100.00
3668;BME280;24099;47.102;15.440;2023-04-24T09:57:50;96290.97;;;11.68;100.00
3668;BME280;24099;47.102;15.440;2023-04-24T10:00:25;96289.19;;;12.00;100.00
3668;BME280;24099;47.102;15.440;2023-04-24T10:02:57;96273.72;;;12.11;100.00
3668;BME280;24099;47.102;15.440;2023-04-24T10:05:28;96282.47;;;12.04;100.00
3668;BME280;24099;47.102;15.440;2023-04-24T10:08:01;96274.00;;;12.27;100.00
3668;BME280;24099;47.102;15.440;2023-04-24T10:10:31;96271.91;;;12.36;100.00
3668;BME280;24099;47.102;15.440;2023-04-24T10:13:00;96267.91;;;12.52;100.00
3668;BME280;24099;47.102;15.440;2023-04-24T10:15:28;96263.66;;;12.51;100.00
3668;BME280;24099;47.102;15.440;2023-04-24T10:17:58;96263.63;;;12.57;100.00
3668;BME280;24099;47.102;15.440;2023-04-24T10:20:28;96265.50;;;12.75;100.00
3668;BME280;24099;47.102;15.440;2023-04-24T10:22:58;96256.81;;;12.68;100.00
3668;BME280;24099;47.102;15.440;2023-04-24T10:25:27;96254.72;;;12.76;100.00
3668;BME280;24099;47.102;15.440;2023-04-24T10:27:58;96255.56;;;12.70;100.00
3668;BME280;24099;47.102;15.440;2023-04-24T10:30:28;96254.13;;;12.74;100.00
3668;BME280;24099;47.102;15.440;2023-04-24T10:32:56;96256.13;;;12.54;100.00
3668;BME280;24099;47.102;15.440;2023-04-24T10:35:27;96244.06;;;12.83;100.00
3668;BME280;24099;47.102;15.440;2023-04-24T10:38:01;96253.47;;;12.97;100.00
3668;BME280;24099;47.102;15.440;2023-04-24T10:40:32;96254.19;;;13.04;100.00
3668;BME280;24099;47.102;15.440;2023-04-24T10:43:02;96253.38;;;12.86;100.00
3668;BME280;24099;47.102;15.440;2023-04-24T10:45:33;96261.09;;;12.87;100.00
3668;BME280;24099;47.102;15.440;2023-04-24T10:48:02;96258.81;;;13.16;100.00
3668;BME280;24099;47.102;15.440;2023-04-24T10:50:44;96253.66;;;13.21;100.00
3668;BME280;24099;47.102;15.440;2023-04-24T10:53:17;96247.03;;;13.30;100.00
3668;BME280;24099;47.102;15.440;2023-04-24T10:55:47;96237.66;;;13.34;100.00
3668;BME280;24099;47.102;15.440;2023-04-24T10:58:24;96238.75;;;13.26;100.00
3668;BME280;24099;47.102;15.440;2023-04-24T11:00:59;96227.09;;;13.34;100.00
3668;BME280;24099;47.102;15.440;2023-04-24T11:03:29;96223.56;;;13.22;100.00
3668;BME280;24099;47.102;15.440;2023-04-24T11:05:59;96227.09;;;13.34;100.00
3668;BME280;24099;47.102;15.440;2023-04-24T11:08:29;96220.25;;;13.26;100.00
3668;BME280;24099;47.102;15.440;2023-04-24T11:11:03;96203.16;;;13.29;100.00
3668;BME280;24099;47.102;15.440;2023-04-24T11:14:06;96193.38;;;13.29;100.00
3668;BME280;24099;47.102;15.440;2023-04-24T11:16:45;96188.94;;;13.41;100.00
3668;BME280;24099;47.102;15.440;2023-04-24T11:19:22;96185.81;;;13.15;100.00
3668;BME280;24099;47.102;15.440;2023-04-24T11:21:57;96187.84;;;13.49;100.00
3668;BME280;24099;47.102;15.440;2023-04-24T11:24:38;96192.97;;;13.44;100.00
3668;BME280;24099;47.102;15.440;2023-04-24T11:27:13;96198.94;;;13.69;100.00
3668;BME280;24099;47.102;15.440;2023-04-24T11:29:46;96188.63;;;13.79;100.00
3668;BME280;24099;47.102;15.440;2023-04-24T11:32:25;96178.72;;;13.75;100.00
3668;BME280;24099;47.102;15.440;2023-04-24T11:34:55;96181.03;;;13.71;100.00
3668;BME280;24099;47.102;15.440;2023-04-24T11:37:24;96183.09;;;13.81;100.00
3668;BME280;24099;47.102;15.440;2023-04-24T11:39:53;96190.69;;;13.77;100.00
3668;BME280;24099;47.102;15.440;2023-04-24T11:42:22;96197.13;;;13.82;100.00
3668;BME280;24099;47.102;15.440;2023-04-24T11:44:55;96202.31;;;13.76;100.00
3668;BME280;24099;47.102;15.440;2023-04-24T11:47:29;96185.88;;;13.74;100.00
3668;BME280;24099;47.102;15.440;2023-04-24T11:50:00;96179.09;;;13.78;100.00
3668;BME280;24099;47.102;15.440;2023-04-24T11:52:28;96174.72;;;13.84;100.00
3668;BME280;24099;47.102;15.440;2023-04-24T11:54:56;96176.16;;;13.98;100.00
3668;BME280;24099;47.102;15.440;2023-04-24T11:57:25;96182.28;;;13.69;100.00
3668;BME280;24099;47.102;15.440;2023-04-24T11:59:57;96167.22;;;13.81;100.00
3668;BME280;24099;47.102;15.440;2023-04-24T12:02:25;96152.66;;;13.90;100.00
3668;BME280;24099;47.102;15.440;2023-04-24T12:04:54;96150.09;;;13.72;100.00
3668;BME280;24099;47.102;15.440;2023-04-24T12:07:25;96129.22;;;13.52;100.00
3668;BME280;24099;47.102;15.440;2023-04-24T12:09:59;96140.53;;;13.71;100.00
3668;BME280;24099;47.102;15.440;2023-04-24T12:12:28;96148.13;;;13.67;100.00
3668;BME280;24099;47.102;15.440;2023-04-24T12:14:59;96145.75;;;13.48;100.00
3668;BME280;24099;47.102;15.440;2023-04-24T12:17:29;96142.69;;;13.51;100.00
3668;BME280;24099;47.102;15.440;2023-04-24T12:19:59;96157.22;;;13.83;100.00
3668;BME280;24099;47.102;15.440;2023-04-24T12:22:42;96149.75;;;13.80;100.00
3668;BME280;24099;47.102;15.440;2023-04-24T12:25:13;96155.13;;;14.15;100.00
3668;BME280;24099;47.102;15.440;2023-04-24T12:27:41;96157.41;;;14.23;100.00
3668;BME280;24099;47.102;15.440;2023-04-24T12:30:13;96161.31;;;14.09;100.00
3668;BME280;24099;47.102;15.440;2023-04-24T12:32:42;96146.25;;;14.09;100.00
3668;BME280;24099;47.102;15.440;2023-04-24T12:35:11;96137.97;;;14.41;100.00
3668;BME280;24099;47.102;15.440;2023-04-24T12:37:41;96156.97;;;14.50;100.00
3668;BME280;24099;47.102;15.440;2023-04-24T12:40:11;96155.22;;;14.08;100.00
3668;BME280;24099;47.102;15.440;2023-04-24T12:42:43;96142.09;;;14.13;100.00
3668;BME280;24099;47.102;15.440;2023-04-24T12:45:30;96145.31;;;14.39;100.00
3668;BME280;24099;47.102;15.440;2023-04-24T12:47:58;96121.38;;;13.87;100.00
3668;BME280;24099;47.102;15.440;2023-04-24T12:50:26;96099.63;;;14.20;100.00
3668;BME280;24099;47.102;15.440;2023-04-24T12:52:55;96088.59;;;14.46;100.00
3668;BME280;24099;47.102;15.440;2023-04-24T12:55:23;96082.78;;;14.73;100.00
3668;BME280;24099;47.102;15.440;2023-04-24T12:57:51;96091.56;;;14.62;100.00
3668;BME280;24099;47.102;15.440;2023-04-24T13:00:20;96091.69;;;14.32;100.00
3668;BME280;24099;47.102;15.440;2023-04-24T13:02:50;96081.00;;;14.90;100.00
3668;BME280;24099;47.102;15.440;2023-04-24T13:05:35;96078.78;;;14.70;100.00
3668;BME280;24099;47.102;15.440;2023-04-24T13:08:03;96084.66;;;14.61;100.00
3668;BME280;24099;47.102;15.440;2023-04-24T13:10:31;96084.81;;;14.42;100.00
3668;BME280;24099;47.102;15.440;2023-04-24T13:12:59;96078.44;;;14.67;100.00